sensor_id;sensor_type;location;lat;lon;timestamp;P1;durP1;ratioP1;P2;durP2;ratioP2
60859;SDS011;46694;54.382;9.708;2023-03-21T00:00:04;43.07;;;28.00;;
60859;SDS011;46694;54.382;9.708;2023-03-21T00:02:45;39.85;;;26.25;;
60859;SDS011;46694;54.382;9.708;2023-03-21T00:05:24;35.50;;;25.23;;
60859;SDS011;46694;54.382;9.708;2023-03-21T00:08:03;38.92;;;25.60;;
60859;SDS011;46694;54.382;9.708;2023-03-21T00:10:43;36.37;;;26.13;;
60859;SDS011;46694;54.382;9.708;2023-03-21T00:13:22;36.60;;;25.55;;
60859;SDS011;46694;54.382;9.708;2023-03-21T00:18:48;36.20;;;24.58;;
60859;SDS011;46694;54.382;9.708;2023-03-21T00:21:30;39.00;;;25.95;;
60859;SDS011;46694;54.382;9.708;2023-03-21T00:24:11;40.58;;;25.60;;
60859;SDS011;46694;54.382;9.708;2023-03-21T00:26:50;38.10;;;25.58;;
60859;SDS011;46694;54.382;9.708;2023-03-21T00:29:30;53.77;;;29.50;;
60859;SDS011;46694;54.382;9.708;2023-03-21T00:32:10;43.10;;;25.90;;
60859;SDS011;46694;54.382;9.708;2023-03-21T00:34:49;40.80;;;25.23;;
60859;SDS011;46694;54.382;9.708;2023-03-21T00:37:30;40.40;;;24.40;;
60859;SDS011;46694;54.382;9.708;2023-03-21T00:40:09;38.92;;;25.90;;
60859;SDS011;46694;54.382;9.708;2023-03-21T00:42:50;41.15;;;26.20;;
60859;SDS011;46694;54.382;9.708;2023-03-21T00:45:30;41.00;;;26.47;;
60859;SDS011;46694;54.382;9.708;2023-03-21T00:48:10;48.83;;;27.42;;
60859;SDS011;46694;54.382;9.708;2023-03-21T00:50:50;53.38;;;29.40;;
60859;SDS011;46694;54.382;9.708;2023-03-21T00:53:32;47.63;;;30.88;;
60859;SDS011;46694;54.382;9.708;2023-03-21T00:56:11;42.72;;;27.45;;
60859;SDS011;46694;54.382;9.708;2023-03-21T00:58:51;58.75;;;31.70;;
60859;SDS011;46694;54.382;9.708;2023-03-21T01:01:30;45.58;;;30.02;;
60859;SDS011;46694;54.382;9.708;2023-03-21T01:04:10;58.90;;;32.42;;
60859;SDS011;46694;54.382;9.708;2023-03-21T01:06:52;58.97;;;29.85;;
60859;SDS011;46694;54.382;9.708;2023-03-21T01:09:32;57.63;;;31.70;;
60859;SDS011;46694;54.382;9.708;2023-03-21T01:12:12;48.28;;;29.83;;
60859;SDS011;46694;54.382;9.708;2023-03-21T01:14:52;67.43;;;34.53;;
60859;SDS011;46694;54.382;9.708;2023-03-21T01:17:32;57.67;;;33.38;;
60859;SDS011;46694;54.382;9.708;2023-03-21T01:20:11;58.90;;;33.22;;
60859;SDS011;46694;54.382;9.708;2023-03-21T01:22:51;64.43;;;35.15;;
60859;SDS011;46694;54.382;9.708;2023-03-21T01:25:31;69.10;;;34.83;;
60859;SDS011;46694;54.382;9.708;2023-03-21T01:28:10;62.28;;;34.30;;
60859;SDS011;46694;54.382;9.708;2023-03-21T01:30:50;59.50;;;34.40;;
60859;SDS011;46694;54.382;9.708;2023-03-21T01:33:31;67.40;;;34.87;;
60859;SDS011;46694;54.382;9.708;2023-03-21T01:36:15;76.10;;;36.35;;
60859;SDS011;46694;54.382;9.708;2023-03-21T01:38:59;61.42;;;34.30;;
60859;SDS011;46694;54.382;9.708;2023-03-21T01:41:40;72.82;;;32.80;;
60859;SDS011;46694;54.382;9.708;2023-03-21T01:44:20;70.60;;;32.70;;
60859;SDS011;46694;54.382;9.708;2023-03-21T01:46:59;59.88;;;31.75;;
60859;SDS011;46694;54.382;9.708;2023-03-21T01:49:40;57.80;;;33.33;;
60859;SDS011;46694;54.382;9.708;2023-03-21T01:52:33;65.13;;;31.98;;
60859;SDS011;46694;54.382;9.708;2023-03-21T01:55:15;65.95;;;32.90;;
60859;SDS011;46694;54.382;9.708;2023-03-21T01:57:56;71.23;;;33.70;;
60859;SDS011;46694;54.382;9.708;2023-03-21T02:00:36;70.30;;;34.15;;
60859;SDS011;46694;54.382;9.708;2023-03-21T02:03:16;69.00;;;33.95;;
60859;SDS011;46694;54.382;9.708;2023-03-21T02:05:59;71.22;;;34.47;;
60859;SDS011;46694;54.382;9.708;2023-03-21T02:08:41;66.32;;;32.85;;
60859;SDS011;46694;54.382;9.708;2023-03-21T02:11:21;67.57;;;32.78;;
60859;SDS011;46694;54.382;9.708;2023-03-21T02:14:01;57.17;;;30.83;;
60859;SDS011;46694;54.382;9.708;2023-03-21T02:16:49;66.40;;;31.48;;
60859;SDS011;46694;54.382;9.708;2023-03-21T02:29:26;57.20;;;29.30;;
60859;SDS011;46694;54.382;9.708;2023-03-21T02:44:03;54.08;;;26.92;;
60859;SDS011;46694;54.382;9.708;2023-03-21T02:47:11;47.17;;;27.10;;
60859;SDS011;46694;54.382;9.708;2023-03-21T02:52:55;45.78;;;27.02;;
60859;SDS011;46694;54.382;9.708;2023-03-21T02:55:36;50.90;;;27.70;;
60859;SDS011;46694;54.382;9.708;2023-03-21T02:58:20;44.42;;;25.75;;
60859;SDS011;46694;54.382;9.708;2023-03-21T03:01:02;43.42;;;24.95;;
60859;SDS011;46694;54.382;9.708;2023-03-21T03:03:41;42.17;;;23.73;;
60859;SDS011;46694;54.382;9.708;2023-03-21T03:06:21;40.97;;;23.65;;
60859;SDS011;46694;54.382;9.708;2023-03-21T03:09:24;30.55;;;17.70;;
60859;SDS011;46694;54.382;9.708;2023-03-21T03:15:44;25.38;;;13.23;;
60859;SDS011;46694;54.382;9.708;2023-03-21T03:27:31;15.93;;;8.48;;
60859;SDS011;46694;54.382;9.708;2023-03-21T03:30:17;16.85;;;9.60;;
60859;SDS011;46694;54.382;9.708;2023-03-21T03:32:58;17.70;;;10.30;;
60859;SDS011;46694;54.382;9.708;2023-03-21T03:35:40;16.35;;;9.50;;
60859;SDS011;46694;54.382;9.708;2023-03-21T03:38:20;20.10;;;10.85;;
60859;SDS011;46694;54.382;9.708;2023-03-21T03:41:02;17.13;;;10.47;;
60859;SDS011;46694;54.382;9.708;2023-03-21T03:43:58;19.00;;;10.73;;
60859;SDS011;46694;54.382;9.708;2023-03-21T03:49:48;22.05;;;10.95;;
60859;SDS011;46694;54.382;9.708;2023-03-21T03:52:40;18.80;;;11.40;;
60859;SDS011;46694;54.382;9.708;2023-03-21T03:55:26;19.05;;;10.45;;
60859;SDS011;46694;54.382;9.708;2023-03-21T03:58:11;21.83;;;12.25;;
60859;SDS011;46694;54.382;9.708;2023-03-21T04:00:56;19.20;;;10.47;;
60859;SDS011;46694;54.382;9.708;2023-03-21T04:03:37;18.23;;;10.50;;
60859;SDS011;46694;54.382;9.708;2023-03-21T04:06:19;18.35;;;10.93;;
60859;SDS011;46694;54.382;9.708;2023-03-21T04:08:59;19.17;;;11.13;;
60859;SDS011;46694;54.382;9.708;2023-03-21T04:11:39;19.33;;;11.17;;
60859;SDS011;46694;54.382;9.708;2023-03-21T04:14:19;17.67;;;11.00;;
60859;SDS011;46694;54.382;9.708;2023-03-21T04:16:58;22.10;;;12.35;;
60859;SDS011;46694;54.382;9.708;2023-03-21T04:19:38;22.75;;;13.95;;
60859;SDS011;46694;54.382;9.708;2023-03-21T04:22:17;21.63;;;13.00;;
60859;SDS011;46694;54.382;9.708;2023-03-21T04:24:58;20.80;;;13.10;;
60859;SDS011;46694;54.382;9.708;2023-03-21T04:27:39;25.85;;;14.77;;
60859;SDS011;46694;54.382;9.708;2023-03-21T04:30:19;25.75;;;15.35;;
60859;SDS011;46694;54.382;9.708;2023-03-21T04:32:59;29.08;;;16.92;;
60859;SDS011;46694;54.382;9.708;2023-03-21T04:35:38;34.70;;;19.95;;
60859;SDS011;46694;54.382;9.708;2023-03-21T04:38:24;38.20;;;21.65;;
60859;SDS011;46694;54.382;9.708;2023-03-21T04:41:08;37.47;;;24.52;;
60859;SDS011;46694;54.382;9.708;2023-03-21T04:43:47;39.63;;;23.83;;
60859;SDS011;46694;54.382;9.708;2023-03-21T04:46:26;45.60;;;27.60;;
60859;SDS011;46694;54.382;9.708;2023-03-21T04:49:06;43.70;;;26.23;;
60859;SDS011;46694;54.382;9.708;2023-03-21T04:51:46;47.23;;;27.77;;
60859;SDS011;46694;54.382;9.708;2023-03-21T04:54:33;45.88;;;27.73;;
60859;SDS011;46694;54.382;9.708;2023-03-21T04:57:13;53.08;;;29.95;;
60859;SDS011;46694;54.382;9.708;2023-03-21T04:59:53;61.97;;;30.80;;
60859;SDS011;46694;54.382;9.708;2023-03-21T05:02:32;45.27;;;27.73;;
60859;SDS011;46694;54.382;9.708;2023-03-21T05:05:12;56.53;;;30.53;;
60859;SDS011;46694;54.382;9.708;2023-03-21T05:07:51;46.47;;;29.20;;
60859;SDS011;46694;54.382;9.708;2023-03-21T05:10:31;57.57;;;31.40;;
60859;SDS011;46694;54.382;9.708;2023-03-21T05:13:11;61.33;;;33.10;;
60859;SDS011;46694;54.382;9.708;2023-03-21T05:15:51;61.60;;;32.80;;
60859;SDS011;46694;54.382;9.708;2023-03-21T05:18:30;66.13;;;33.47;;
60859;SDS011;46694;54.382;9.708;2023-03-21T05:21:12;61.45;;;32.25;;
60859;SDS011;46694;54.382;9.708;2023-03-21T05:23:56;74.25;;;37.95;;
60859;SDS011;46694;54.382;9.708;2023-03-21T05:26:35;82.63;;;36.83;;
60859;SDS011;46694;54.382;9.708;2023-03-21T05:32:47;77.17;;;38.13;;
60859;SDS011;46694;54.382;9.708;2023-03-21T05:35:26;76.20;;;37.47;;
60859;SDS011;46694;54.382;9.708;2023-03-21T05:38:06;96.80;;;40.70;;
60859;SDS011;46694;54.382;9.708;2023-03-21T05:40:46;83.37;;;40.20;;
60859;SDS011;46694;54.382;9.708;2023-03-21T05:43:27;80.23;;;39.30;;
60859;SDS011;46694;54.382;9.708;2023-03-21T05:46:07;89.07;;;41.97;;
60859;SDS011;46694;54.382;9.708;2023-03-21T05:48:47;96.82;;;40.00;;
60859;SDS011;46694;54.382;9.708;2023-03-21T05:51:26;88.70;;;39.60;;
60859;SDS011;46694;54.382;9.708;2023-03-21T05:54:06;78.90;;;36.83;;
60859;SDS011;46694;54.382;9.708;2023-03-21T05:56:45;84.97;;;39.70;;
60859;SDS011;46694;54.382;9.708;2023-03-21T05:59:25;78.83;;;37.63;;
60859;SDS011;46694;54.382;9.708;2023-03-21T06:02:05;78.83;;;36.77;;
60859;SDS011;46694;54.382;9.708;2023-03-21T06:04:44;83.07;;;36.17;;
60859;SDS011;46694;54.382;9.708;2023-03-21T06:07:24;76.93;;;36.25;;
60859;SDS011;46694;54.382;9.708;2023-03-21T06:10:04;77.57;;;33.90;;
60859;SDS011;46694;54.382;9.708;2023-03-21T06:12:44;64.00;;;32.93;;
60859;SDS011;46694;54.382;9.708;2023-03-21T06:15:24;67.90;;;33.90;;
60859;SDS011;46694;54.382;9.708;2023-03-21T06:18:04;71.53;;;33.10;;
60859;SDS011;46694;54.382;9.708;2023-03-21T06:20:43;76.50;;;34.17;;
60859;SDS011;46694;54.382;9.708;2023-03-21T06:23:23;70.10;;;34.23;;
60859;SDS011;46694;54.382;9.708;2023-03-21T06:26:02;67.73;;;32.20;;
60859;SDS011;46694;54.382;9.708;2023-03-21T06:28:43;61.70;;;30.80;;
60859;SDS011;46694;54.382;9.708;2023-03-21T06:31:23;70.43;;;33.80;;
60859;SDS011;46694;54.382;9.708;2023-03-21T06:34:04;61.10;;;31.63;;
60859;SDS011;46694;54.382;9.708;2023-03-21T06:36:43;60.60;;;32.00;;
60859;SDS011;46694;54.382;9.708;2023-03-21T06:39:24;61.73;;;32.37;;
60859;SDS011;46694;54.382;9.708;2023-03-21T06:42:06;60.57;;;30.40;;
60859;SDS011;46694;54.382;9.708;2023-03-21T06:44:45;67.90;;;32.27;;
60859;SDS011;46694;54.382;9.708;2023-03-21T06:47:24;70.93;;;32.03;;
60859;SDS011;46694;54.382;9.708;2023-03-21T06:50:04;64.37;;;31.70;;
60859;SDS011;46694;54.382;9.708;2023-03-21T06:52:44;58.67;;;31.57;;
60859;SDS011;46694;54.382;9.708;2023-03-21T06:55:24;79.10;;;34.80;;
60859;SDS011;46694;54.382;9.708;2023-03-21T06:58:06;69.27;;;32.50;;
60859;SDS011;46694;54.382;9.708;2023-03-21T07:00:46;66.10;;;32.50;;
60859;SDS011;46694;54.382;9.708;2023-03-21T07:03:26;67.33;;;32.33;;
60859;SDS011;46694;54.382;9.708;2023-03-21T07:06:09;64.63;;;31.97;;
60859;SDS011;46694;54.382;9.708;2023-03-21T07:08:49;66.60;;;30.87;;
60859;SDS011;46694;54.382;9.708;2023-03-21T07:11:29;67.00;;;32.80;;
60859;SDS011;46694;54.382;9.708;2023-03-21T07:14:09;71.80;;;35.07;;
60859;SDS011;46694;54.382;9.708;2023-03-21T07:16:49;81.10;;;35.05;;
60859;SDS011;46694;54.382;9.708;2023-03-21T07:19:28;75.77;;;32.93;;
60859;SDS011;46694;54.382;9.708;2023-03-21T07:22:08;78.70;;;35.90;;
60859;SDS011;46694;54.382;9.708;2023-03-21T07:24:48;72.13;;;33.33;;
60859;SDS011;46694;54.382;9.708;2023-03-21T07:27:27;75.13;;;34.63;;
60859;SDS011;46694;54.382;9.708;2023-03-21T07:30:07;74.93;;;32.93;;
60859;SDS011;46694;54.382;9.708;2023-03-21T07:32:48;66.70;;;33.63;;
60859;SDS011;46694;54.382;9.708;2023-03-21T07:35:28;87.13;;;36.70;;
60859;SDS011;46694;54.382;9.708;2023-03-21T07:38:07;77.87;;;34.97;;
60859;SDS011;46694;54.382;9.708;2023-03-21T07:40:47;71.77;;;34.03;;
60859;SDS011;46694;54.382;9.708;2023-03-21T07:43:27;65.80;;;34.90;;
60859;SDS011;46694;54.382;9.708;2023-03-21T07:46:06;66.60;;;35.07;;
60859;SDS011;46694;54.382;9.708;2023-03-21T07:48:46;65.23;;;34.40;;
60859;SDS011;46694;54.382;9.708;2023-03-21T07:51:25;77.67;;;34.10;;
60859;SDS011;46694;54.382;9.708;2023-03-21T07:54:05;73.17;;;35.97;;
60859;SDS011;46694;54.382;9.708;2023-03-21T07:56:44;75.20;;;35.67;;
60859;SDS011;46694;54.382;9.708;2023-03-21T07:59:24;79.30;;;36.60;;
60859;SDS011;46694;54.382;9.708;2023-03-21T08:02:03;75.67;;;36.50;;
60859;SDS011;46694;54.382;9.708;2023-03-21T08:04:44;73.43;;;37.57;;
60859;SDS011;46694;54.382;9.708;2023-03-21T08:07:24;70.43;;;35.17;;
60859;SDS011;46694;54.382;9.708;2023-03-21T08:10:05;72.03;;;36.40;;
60859;SDS011;46694;54.382;9.708;2023-03-21T08:12:46;66.30;;;36.37;;
60859;SDS011;46694;54.382;9.708;2023-03-21T08:15:26;73.67;;;39.13;;
60859;SDS011;46694;54.382;9.708;2023-03-21T08:18:05;63.83;;;35.20;;
60859;SDS011;46694;54.382;9.708;2023-03-21T08:20:49;65.00;;;35.57;;
60859;SDS011;46694;54.382;9.708;2023-03-21T08:23:33;62.53;;;34.90;;
60859;SDS011;46694;54.382;9.708;2023-03-21T08:26:13;70.70;;;38.60;;
60859;SDS011;46694;54.382;9.708;2023-03-21T08:28:55;82.70;;;39.53;;
60859;SDS011;46694;54.382;9.708;2023-03-21T08:31:35;75.10;;;39.10;;
60859;SDS011;46694;54.382;9.708;2023-03-21T08:34:14;64.70;;;34.67;;
60859;SDS011;46694;54.382;9.708;2023-03-21T08:36:55;72.27;;;36.73;;
60859;SDS011;46694;54.382;9.708;2023-03-21T08:39:35;73.20;;;37.00;;
60859;SDS011;46694;54.382;9.708;2023-03-21T08:42:15;63.43;;;34.40;;
60859;SDS011;46694;54.382;9.708;2023-03-21T08:44:55;66.53;;;35.90;;
60859;SDS011;46694;54.382;9.708;2023-03-21T08:47:35;71.97;;;35.10;;
60859;SDS011;46694;54.382;9.708;2023-03-21T08:50:16;61.07;;;31.97;;
60859;SDS011;46694;54.382;9.708;2023-03-21T08:52:58;51.90;;;33.87;;
60859;SDS011;46694;54.382;9.708;2023-03-21T08:55:37;54.80;;;34.57;;
60859;SDS011;46694;54.382;9.708;2023-03-21T08:58:17;60.40;;;32.77;;
60859;SDS011;46694;54.382;9.708;2023-03-21T09:00:57;56.70;;;33.73;;
60859;SDS011;46694;54.382;9.708;2023-03-21T09:03:37;59.90;;;34.13;;
60859;SDS011;46694;54.382;9.708;2023-03-21T09:06:16;57.47;;;33.97;;
60859;SDS011;46694;54.382;9.708;2023-03-21T09:08:56;54.73;;;33.53;;
60859;SDS011;46694;54.382;9.708;2023-03-21T09:11:36;60.47;;;36.57;;
60859;SDS011;46694;54.382;9.708;2023-03-21T09:14:15;52.37;;;33.90;;
60859;SDS011;46694;54.382;9.708;2023-03-21T09:16:55;52.47;;;32.67;;
60859;SDS011;46694;54.382;9.708;2023-03-21T09:19:35;50.27;;;32.00;;
60859;SDS011;46694;54.382;9.708;2023-03-21T09:22:16;54.40;;;32.90;;
60859;SDS011;46694;54.382;9.708;2023-03-21T09:24:56;47.60;;;30.20;;
60859;SDS011;46694;54.382;9.708;2023-03-21T09:27:36;43.83;;;29.07;;
60859;SDS011;46694;54.382;9.708;2023-03-21T09:30:16;47.07;;;30.33;;
60859;SDS011;46694;54.382;9.708;2023-03-21T09:33:00;51.23;;;31.23;;
60859;SDS011;46694;54.382;9.708;2023-03-21T09:35:44;52.20;;;30.27;;
60859;SDS011;46694;54.382;9.708;2023-03-21T09:38:24;45.30;;;29.07;;
60859;SDS011;46694;54.382;9.708;2023-03-21T09:41:10;40.90;;;29.40;;
60859;SDS011;46694;54.382;9.708;2023-03-21T09:47:49;36.40;;;26.93;;
60859;SDS011;46694;54.382;9.708;2023-03-21T09:50:32;36.90;;;26.77;;
60859;SDS011;46694;54.382;9.708;2023-03-21T09:53:22;36.50;;;27.37;;
60859;SDS011;46694;54.382;9.708;2023-03-21T09:56:11;37.83;;;26.23;;
60859;SDS011;46694;54.382;9.708;2023-03-21T09:58:53;37.60;;;26.20;;
60859;SDS011;46694;54.382;9.708;2023-03-21T10:01:37;37.17;;;27.70;;
60859;SDS011;46694;54.382;9.708;2023-03-21T10:04:23;35.13;;;27.23;;
60859;SDS011;46694;54.382;9.708;2023-03-21T10:07:04;33.80;;;24.80;;
60859;SDS011;46694;54.382;9.708;2023-03-21T10:09:43;28.93;;;22.63;;
60859;SDS011;46694;54.382;9.708;2023-03-21T10:12:24;31.00;;;23.43;;
60859;SDS011;46694;54.382;9.708;2023-03-21T10:15:09;32.40;;;23.97;;
60859;SDS011;46694;54.382;9.708;2023-03-21T10:17:56;39.90;;;26.07;;
60859;SDS011;46694;54.382;9.708;2023-03-21T10:20:43;40.60;;;26.53;;
60859;SDS011;46694;54.382;9.708;2023-03-21T10:23:24;38.00;;;25.20;;
60859;SDS011;46694;54.382;9.708;2023-03-21T10:26:06;37.30;;;26.47;;
60859;SDS011;46694;54.382;9.708;2023-03-21T10:28:46;37.70;;;25.10;;
60859;SDS011;46694;54.382;9.708;2023-03-21T10:31:27;35.90;;;25.47;;
60859;SDS011;46694;54.382;9.708;2023-03-21T10:34:12;36.93;;;24.70;;
60859;SDS011;46694;54.382;9.708;2023-03-21T10:36:57;41.47;;;27.00;;
60859;SDS011;46694;54.382;9.708;2023-03-21T10:39:40;39.80;;;28.20;;
60859;SDS011;46694;54.382;9.708;2023-03-21T10:42:28;37.90;;;24.93;;
60859;SDS011;46694;54.382;9.708;2023-03-21T10:45:14;41.47;;;26.67;;
60859;SDS011;46694;54.382;9.708;2023-03-21T10:47:57;38.57;;;26.30;;
60859;SDS011;46694;54.382;9.708;2023-03-21T10:50:36;44.57;;;27.00;;
60859;SDS011;46694;54.382;9.708;2023-03-21T10:53:20;45.90;;;26.07;;
60859;SDS011;46694;54.382;9.708;2023-03-21T10:56:10;44.80;;;28.20;;
60859;SDS011;46694;54.382;9.708;2023-03-21T10:58:50;42.17;;;29.77;;
60859;SDS011;46694;54.382;9.708;2023-03-21T11:01:34;44.40;;;27.80;;
60859;SDS011;46694;54.382;9.708;2023-03-21T11:04:19;44.17;;;28.03;;
60859;SDS011;46694;54.382;9.708;2023-03-21T11:07:05;45.60;;;28.60;;
60859;SDS011;46694;54.382;9.708;2023-03-21T11:09:53;47.03;;;29.50;;
60859;SDS011;46694;54.382;9.708;2023-03-21T11:12:36;49.37;;;29.43;;
60859;SDS011;46694;54.382;9.708;2023-03-21T11:15:29;47.10;;;28.73;;
60859;SDS011;46694;54.382;9.708;2023-03-21T11:18:19;46.00;;;27.87;;
60859;SDS011;46694;54.382;9.708;2023-03-21T11:21:05;44.33;;;28.23;;
60859;SDS011;46694;54.382;9.708;2023-03-21T11:23:49;41.67;;;26.47;;
60859;SDS011;46694;54.382;9.708;2023-03-21T11:26:31;42.10;;;25.03;;
60859;SDS011;46694;54.382;9.708;2023-03-21T11:29:31;46.80;;;27.00;;
60859;SDS011;46694;54.382;9.708;2023-03-21T11:35:24;45.73;;;27.00;;
60859;SDS011;46694;54.382;9.708;2023-03-21T11:38:22;39.67;;;25.03;;
60859;SDS011;46694;54.382;9.708;2023-03-21T11:41:11;36.67;;;25.10;;
60859;SDS011;46694;54.382;9.708;2023-03-21T11:44:22;42.10;;;25.20;;
60859;SDS011;46694;54.382;9.708;2023-03-21T11:47:20;30.17;;;20.67;;
60859;SDS011;46694;54.382;9.708;2023-03-21T11:50:00;32.10;;;22.33;;
60859;SDS011;46694;54.382;9.708;2023-03-21T11:52:40;32.97;;;23.30;;
60859;SDS011;46694;54.382;9.708;2023-03-21T12:02:45;29.10;;;19.07;;
60859;SDS011;46694;54.382;9.708;2023-03-21T12:05:35;30.53;;;19.97;;
60859;SDS011;46694;54.382;9.708;2023-03-21T12:08:34;27.40;;;18.47;;
60859;SDS011;46694;54.382;9.708;2023-03-21T12:21:02;28.87;;;18.00;;
60859;SDS011;46694;54.382;9.708;2023-03-21T12:26:51;25.00;;;17.90;;
60859;SDS011;46694;54.382;9.708;2023-03-21T12:42:18;20.40;;;15.40;;
60859;SDS011;46694;54.382;9.708;2023-03-21T12:45:04;22.97;;;16.23;;
60859;SDS011;46694;54.382;9.708;2023-03-21T12:47:57;20.80;;;14.90;;
60859;SDS011;46694;54.382;9.708;2023-03-21T12:50:53;23.70;;;15.90;;
60859;SDS011;46694;54.382;9.708;2023-03-21T12:56:22;19.00;;;14.57;;
60859;SDS011;46694;54.382;9.708;2023-03-21T12:59:26;18.33;;;14.57;;
60859;SDS011;46694;54.382;9.708;2023-03-21T13:02:27;20.20;;;13.70;;
60859;SDS011;46694;54.382;9.708;2023-03-21T13:10:54;18.30;;;14.70;;
60859;SDS011;46694;54.382;9.708;2023-03-21T13:16:46;17.40;;;13.63;;
60859;SDS011;46694;54.382;9.708;2023-03-21T13:19:45;14.30;;;11.80;;
60859;SDS011;46694;54.382;9.708;2023-03-21T13:22:39;18.43;;;11.73;;
60859;SDS011;46694;54.382;9.708;2023-03-21T13:25:20;13.00;;;11.67;;
60859;SDS011;46694;54.382;9.708;2023-03-21T13:28:03;15.60;;;10.97;;
60859;SDS011;46694;54.382;9.708;2023-03-21T13:30:43;20.90;;;12.10;;
60859;SDS011;46694;54.382;9.708;2023-03-21T13:33:27;16.43;;;12.50;;
60859;SDS011;46694;54.382;9.708;2023-03-21T13:36:07;11.20;;;10.00;;
60859;SDS011;46694;54.382;9.708;2023-03-21T13:38:52;11.53;;;9.23;;
60859;SDS011;46694;54.382;9.708;2023-03-21T13:41:43;9.37;;;8.40;;
60859;SDS011;46694;54.382;9.708;2023-03-21T13:45:09;12.40;;;9.10;;
60859;SDS011;46694;54.382;9.708;2023-03-21T13:50:29;8.67;;;7.87;;
60859;SDS011;46694;54.382;9.708;2023-03-21T13:58:57;17.53;;;9.70;;
60859;SDS011;46694;54.382;9.708;2023-03-21T14:05:05;10.10;;;8.97;;
60859;SDS011;46694;54.382;9.708;2023-03-21T14:07:57;8.23;;;7.43;;
60859;SDS011;46694;54.382;9.708;2023-03-21T14:10:44;7.97;;;7.30;;
60859;SDS011;46694;54.382;9.708;2023-03-21T14:13:26;9.90;;;7.60;;
60859;SDS011;46694;54.382;9.708;2023-03-21T14:16:09;10.97;;;8.63;;
60859;SDS011;46694;54.382;9.708;2023-03-21T14:19:10;11.47;;;8.80;;
60859;SDS011;46694;54.382;9.708;2023-03-21T14:21:50;22.53;;;18.00;;
60859;SDS011;46694;54.382;9.708;2023-03-21T14:24:31;40.33;;;25.97;;
60859;SDS011;46694;54.382;9.708;2023-03-21T14:27:11;14.00;;;12.43;;
60859;SDS011;46694;54.382;9.708;2023-03-21T14:29:51;16.70;;;11.60;;
60859;SDS011;46694;54.382;9.708;2023-03-21T14:32:31;9.97;;;8.97;;
60859;SDS011;46694;54.382;9.708;2023-03-21T14:35:10;11.77;;;9.30;;
60859;SDS011;46694;54.382;9.708;2023-03-21T14:37:50;7.70;;;6.20;;
60859;SDS011;46694;54.382;9.708;2023-03-21T14:40:30;8.90;;;8.00;;
60859;SDS011;46694;54.382;9.708;2023-03-21T14:43:10;8.30;;;7.23;;
60859;SDS011;46694;54.382;9.708;2023-03-21T14:45:51;6.83;;;5.70;;
60859;SDS011;46694;54.382;9.708;2023-03-21T14:48:33;7.97;;;5.80;;
60859;SDS011;46694;54.382;9.708;2023-03-21T14:51:13;5.47;;;4.97;;
60859;SDS011;46694;54.382;9.708;2023-03-21T14:53:53;7.13;;;6.40;;
60859;SDS011;46694;54.382;9.708;2023-03-21T14:56:35;8.00;;;5.53;;
60859;SDS011;46694;54.382;9.708;2023-03-21T14:59:17;7.67;;;5.70;;
60859;SDS011;46694;54.382;9.708;2023-03-21T15:02:17;5.50;;;4.90;;
60859;SDS011;46694;54.382;9.708;2023-03-21T15:05:07;7.37;;;6.77;;
60859;SDS011;46694;54.382;9.708;2023-03-21T15:07:52;8.63;;;7.83;;
60859;SDS011;46694;54.382;9.708;2023-03-21T15:10:38;12.50;;;10.23;;
60859;SDS011;46694;54.382;9.708;2023-03-21T15:13:18;8.87;;;7.97;;
60859;SDS011;46694;54.382;9.708;2023-03-21T15:16:01;9.13;;;8.23;;
60859;SDS011;46694;54.382;9.708;2023-03-21T15:18:42;10.80;;;9.40;;
60859;SDS011;46694;54.382;9.708;2023-03-21T15:21:24;9.93;;;9.07;;
60859;SDS011;46694;54.382;9.708;2023-03-21T15:24:10;11.23;;;10.03;;
60859;SDS011;46694;54.382;9.708;2023-03-21T15:27:11;11.07;;;7.17;;
60859;SDS011;46694;54.382;9.708;2023-03-21T15:29:56;9.13;;;8.10;;
60859;SDS011;46694;54.382;9.708;2023-03-21T15:32:36;15.17;;;10.97;;
60859;SDS011;46694;54.382;9.708;2023-03-21T15:35:19;9.43;;;8.43;;
60859;SDS011;46694;54.382;9.708;2023-03-21T15:38:03;10.67;;;8.87;;
60859;SDS011;46694;54.382;9.708;2023-03-21T15:40:43;12.77;;;10.10;;
60859;SDS011;46694;54.382;9.708;2023-03-21T15:43:22;11.40;;;9.80;;
60859;SDS011;46694;54.382;9.708;2023-03-21T15:46:02;9.73;;;8.57;;
60859;SDS011;46694;54.382;9.708;2023-03-21T15:52:10;15.53;;;12.57;;
60859;SDS011;46694;54.382;9.708;2023-03-21T15:54:53;17.57;;;13.67;;
60859;SDS011;46694;54.382;9.708;2023-03-21T15:57:37;14.40;;;11.23;;
60859;SDS011;46694;54.382;9.708;2023-03-21T16:00:28;14.43;;;11.67;;
60859;SDS011;46694;54.382;9.708;2023-03-21T16:03:17;14.07;;;10.40;;
60859;SDS011;46694;54.382;9.708;2023-03-21T16:08:54;17.63;;;10.47;;
60859;SDS011;46694;54.382;9.708;2023-03-21T16:11:48;14.20;;;10.43;;
60859;SDS011;46694;54.382;9.708;2023-03-21T16:14:32;13.47;;;12.07;;
60859;SDS011;46694;54.382;9.708;2023-03-21T16:17:12;15.03;;;11.20;;
60859;SDS011;46694;54.382;9.708;2023-03-21T16:20:15;14.30;;;12.80;;
60859;SDS011;46694;54.382;9.708;2023-03-21T16:22:59;17.00;;;11.10;;
60859;SDS011;46694;54.382;9.708;2023-03-21T16:25:39;15.20;;;12.63;;
60859;SDS011;46694;54.382;9.708;2023-03-21T16:28:20;17.00;;;13.37;;
60859;SDS011;46694;54.382;9.708;2023-03-21T16:31:00;15.17;;;12.53;;
60859;SDS011;46694;54.382;9.708;2023-03-21T16:33:39;19.50;;;14.33;;
60859;SDS011;46694;54.382;9.708;2023-03-21T16:36:23;22.30;;;17.80;;
60859;SDS011;46694;54.382;9.708;2023-03-21T16:39:18;27.53;;;18.13;;
60859;SDS011;46694;54.382;9.708;2023-03-21T16:42:00;20.27;;;14.60;;
60859;SDS011;46694;54.382;9.708;2023-03-21T16:44:40;29.93;;;22.43;;
60859;SDS011;46694;54.382;9.708;2023-03-21T16:47:20;28.53;;;18.50;;
60859;SDS011;46694;54.382;9.708;2023-03-21T16:53:04;18.80;;;15.53;;
60859;SDS011;46694;54.382;9.708;2023-03-21T16:55:44;28.30;;;19.80;;
60859;SDS011;46694;54.382;9.708;2023-03-21T16:58:24;27.00;;;20.77;;
60859;SDS011;46694;54.382;9.708;2023-03-21T17:01:04;21.73;;;17.87;;
60859;SDS011;46694;54.382;9.708;2023-03-21T17:03:49;21.27;;;16.03;;
60859;SDS011;46694;54.382;9.708;2023-03-21T17:06:29;20.40;;;16.03;;
60859;SDS011;46694;54.382;9.708;2023-03-21T17:09:09;22.03;;;15.73;;
60859;SDS011;46694;54.382;9.708;2023-03-21T17:11:51;19.43;;;16.13;;
60859;SDS011;46694;54.382;9.708;2023-03-21T17:14:31;26.30;;;18.13;;
60859;SDS011;46694;54.382;9.708;2023-03-21T17:17:11;22.30;;;18.60;;
60859;SDS011;46694;54.382;9.708;2023-03-21T17:19:52;26.47;;;18.70;;
60859;SDS011;46694;54.382;9.708;2023-03-21T17:22:32;24.77;;;18.87;;
60859;SDS011;46694;54.382;9.708;2023-03-21T17:25:11;28.07;;;18.93;;
60859;SDS011;46694;54.382;9.708;2023-03-21T17:27:52;31.17;;;20.53;;
60859;SDS011;46694;54.382;9.708;2023-03-21T17:30:32;30.50;;;19.77;;
60859;SDS011;46694;54.382;9.708;2023-03-21T17:33:13;22.60;;;18.40;;
60859;SDS011;46694;54.382;9.708;2023-03-21T17:35:53;22.20;;;19.80;;
60859;SDS011;46694;54.382;9.708;2023-03-21T17:38:32;29.30;;;20.97;;
60859;SDS011;46694;54.382;9.708;2023-03-21T17:41:13;31.20;;;22.70;;
60859;SDS011;46694;54.382;9.708;2023-03-21T17:43:55;26.80;;;20.50;;
60859;SDS011;46694;54.382;9.708;2023-03-21T17:46:35;33.60;;;22.63;;
60859;SDS011;46694;54.382;9.708;2023-03-21T17:49:15;28.23;;;22.67;;
60859;SDS011;46694;54.382;9.708;2023-03-21T17:51:54;27.20;;;19.87;;